x

La Perouse Bank (46206) Wave Buoy

9:00 - Tue 30th Jun 2015 All times are PDT. -7 hours from GMT.

  • Sig Wave height 9.8ft
  • Peak Period 8s
  • Wind
    16mph, 18mph gusts
  • Sea Temp 55°f
  • Air Temp 58°f
  • Sea Pressure 1018mb
  • La Perouse Bank
  • La Perouse Bank

More Historic Weather Station data

Upgrade to MSW Pro to gain access to the past 30 days of data for over 8000 Wavebouys and Weather Stations around the globe.

Join Pro

Comparision Forecast

View Surf forecast
   
mar. 06/30 9:00 10ft 8s 16 18 mph 1018mb 55f 58f
8:00 9ft 8s 18 22 mph 1018.5mb 56f 58f
7:00 8ft 8s 20 22 mph 1018.7mb 56f 59f
6:00 7ft 8s 18 20 mph 1019.4mb 56f 59f
5:00 6ft 7s 16 18 mph 1019.9mb 56f 59f
3:00 4.5ft 6s 11 13 mph 1020.7mb 58f 59f
2:00 4.5ft 6s 9 13 mph 1021mb 57f 57f
1:00 4.5ft 6s 9 11 mph 1021.2mb 58f 58f
12:00 4.5ft 6s 2
mph
1021.2mb 58f 57f
11:00 4.5ft 6s 2 4 mph 1021.2mb 57f 56f
10:00 4.5ft 7s 2 4 mph 1020.9mb 58f 56f
9:00 4.5ft 6s 2 4 mph 1020.8mb 58f 56f
8:00 4.5ft 15s 2 4 mph 1020.6mb 58f 56f
7:00 4.5ft 15s 4
mph
1020.4mb 58f 56f
6:00 4ft 15s 7 9 mph 1019.9mb 57f 56f
5:00 3.5ft 15s 4 7 mph 1019.7mb 58f 56f
4:00 3.5ft 15s 4 7 mph 1019.5mb 57f 55f
3:00 3.5ft 16s 4 7 mph 1019.2mb 57f 56f
2:00 3.5ft 15s 4
mph
1019.5mb 58f 56f
1:00 3.5ft 16s 2 4 mph 1019.4mb 58f 56f
12:00 3ft 16s  -  mph 1019.2mb 59f 55f
lun. 06/29 11:00 3ft 16s 4
mph
1018.9mb 59f 56f
10:00 3ft 15s 4 7 mph 1018.6mb 59f 56f
9:00 3ft 16s 2 4 mph 1018.1mb 59f 56f
8:00 3ft 15s 2 4 mph 1017.7mb 59f 57f
7:00 3ft 16s 2 4 mph 1017.6mb 59f 57f
6:00 2.5ft 13s 2 4 mph 1017.7mb 59f 57f
5:00 3ft 16s 2 4 mph 1017.9mb 59f 57f
4:00 2.5ft 16s  -  2 mph 1017.9mb 58f 58f
3:00 3.5ft 16s 7 9 mph 1017.9mb 58f 58f
2:00 3ft 16s 13 16 mph 1017.4mb 58f 57f
1:00 3ft 16s 11 13 mph 1017.2mb 58f 57f
12:00 2.5ft 16s 11 13 mph 1017mb 58f 57f
11:00 3ft 16s 9 11 mph 1016.7mb 58f 57f
10:00 2.5ft 16s 2 4 mph 1016.7mb 58f 56f
9:00 3ft 16s 9 11 mph 1016.1mb 58f 56f
8:00 3.5ft 8s 13
mph
1015.2mb 58f 57f
7:00 3ft 17s 7 9 mph 1015.3mb 58f 58f
6:00 3.5ft 8s 4 7 mph 1015mb 58f 58f
5:00 3.5ft 9s  -  2 mph 1014.7mb 58f 58f
4:00 3.5ft 9s 2 4 mph 1014.6mb 58f 58f
3:00 3.5ft 9s 7
mph
1014.3mb 58f 59f
2:00 3.5ft 9s 7
mph
1014.5mb 58f 59f
1:00 3.5ft 16s 2 4 mph 1014mb 58f 59f
12:00 3.5ft 9s 7 9 mph 1014.1mb 58f 59f
dim. 06/28 11:00 3.5ft 8s 7 9 mph 1014.2mb 58f 59f
10:00 3.5ft 8s 4 7 mph 1014.8mb 58f 60f
9:00 3.5ft 10s 13 16 mph 1015mb 58f 59f
8:00 3.5ft 8s 11 13 mph 1015.8mb 58f 58f
7:00 3.5ft 8s 7 9 mph 1015.8mb 58f 58f
6:00 4ft 9s 11 16 mph 1015.2mb 58f 58f
5:00 3.5ft 8s 9 13 mph 1014.8mb 59f 59f
4:00 4ft 8s  -  2 mph 1014.2mb 59f 60f
3:00 4ft 8s 7 9 mph 1015mb 58f 59f
2:00 4ft 9s 13 16 mph 1015.7mb 58f 58f
1:00 3.5ft 10s 16 18 mph 1016mb 59f 58f
12:00 3.5ft 10s 9 11 mph 1015.7mb 59f 60f
11:00 4ft 8s 4 7 mph 1015.3mb 60f 62f
10:00 4ft 9s 2
mph
1014.8mb 59f 61f
9:00 4ft 6s  -  2 mph 1014.4mb 58f 62f
8:00 4.5ft 6s 7
mph
1013.7mb 58f 60f
7:00 4.5ft 9s 4
mph
1013.8mb 58f 60f
6:00 5ft 6s 4 7 mph 1013.6mb 58f 59f
5:00 5ft 6s 7 9 mph 1013.4mb 58f 59f
4:00 5.5ft 6s 9 11 mph 1013.1mb 58f 59f
3:00 5ft 6s 9
mph
1013.4mb 58f 59f
2:00 5ft 6s 7 9 mph 1013.5mb 58f 60f
1:00 5ft 6s 11 13 mph 1013.3mb 58f 60f
12:00 5ft 6s 13 16 mph 1013.2mb 58f 60f
sam. 06/27 11:00 5ft 5s 16 18 mph 1013.2mb 58f 60f
10:00 5ft 6s 20 25 mph 1013.1mb 58f 61f
9:00 5ft 6s 20 22 mph 1013.1mb 58f 61f
8:00 5ft 5s 18 22 mph 1013.4mb 58f 61f
7:00 5ft 5s 18 22 mph 1013.7mb 58f 61f
6:00 5ft 5s 20 22 mph 1014.3mb 58f 61f
5:00 5ft 6s 18 20 mph 1014.7mb 58f 61f
4:00 5ft 6s 9 11 mph 1015.5mb 59f 61f
3:00 4.5ft 6s 9
mph
1016mb 59f 61f
2:00 5ft 6s 7 9 mph 1016.2mb 59f 60f
1:00 5ft 6s 4
mph
1016.6mb 58f 60f
12:00 5ft 6s 9 13 mph 1016.7mb 58f 59f
11:00 5ft 6s 9 11 mph 1016.3mb 58f 58f
10:00 5.5ft 6s 11 13 mph 1016.3mb 58f 58f
9:00 5.5ft 8s 13 18 mph 1015.9mb 57f 58f
8:00 5ft 9s 11 16 mph 1016.6mb 57f 58f
7:00 5ft 9s 13 16 mph 1016.2mb 57f 58f
6:00 5.5ft 7s 16 20 mph 1016.1mb 57f 58f